Time;durP1;ratioP1;P1;durP2;ratioP2;P2;SDS_P1;SDS_P2;PMS_P1;PMS_P2;Temp;Humidity;BMP_temperature;BMP_pressure;BME280_temperature;BME280_humidity;BME280_pressure;Samples;Min_cycle;Max_cycle;Signal;HPM_P1;HPM_P2
2022/12/31 00:01:12;;;;;;;10.32;3.72;;;11.60;99.90;;;;;;5053564;28;20049;-81
2022/12/31 00:03:38;;;;;;;8.98;2.95;;;11.60;99.90;;;;;;5037429;28;20124;-80
2022/12/31 00:06:27;;;;;;;11.68;3.28;;;11.60;99.90;;;;;;5037069;28;20037;-81
2022/12/31 00:08:54;;;;;;;11.48;3.15;;;11.60;99.90;;;;;;5053442;28;20047;-81
2022/12/31 00:11:21;;;;;;;8.95;3.10;;;11.60;99.90;;;;;;5053303;28;20045;-82
2022/12/31 00:13:47;;;;;;;11.63;3.10;;;11.60;99.90;;;;;;5053965;28;20037;-81
2022/12/31 00:16:16;;;;;;;11.50;2.97;;;11.70;99.90;;;;;;5042710;28;20038;-81
2022/12/31 00:18:48;;;;;;;14.98;3.97;;;11.70;99.90;;;;;;5049562;28;20052;-80
2022/12/31 00:21:14;;;;;;;13.73;3.90;;;11.70;99.90;;;;;;5036718;28;20040;-81
2022/12/31 00:23:40;;;;;;;13.30;3.60;;;11.70;99.90;;;;;;5053332;28;20033;-82
2022/12/31 00:26:09;;;;;;;13.25;3.95;;;11.70;99.90;;;;;;5053445;28;20044;-81
2022/12/31 00:28:35;;;;;;;13.70;3.80;;;11.70;99.90;;;;;;5053472;28;20394;-80
2022/12/31 00:31:13;;;;;;;10.75;3.58;;;11.70;99.90;;;;;;5052567;28;20041;-81
2022/12/31 00:33:39;;;;;;;14.75;4.18;;;11.70;99.90;;;;;;5047202;28;20068;-81
2022/12/31 00:36:11;;;;;;;13.07;3.72;;;11.70;99.90;;;;;;5033595;28;20045;-80
2022/12/31 00:38:37;;;;;;;15.15;3.83;;;11.70;99.90;;;;;;5053414;28;20140;-81
2022/12/31 00:41:03;;;;;;;12.20;3.85;;;11.70;99.90;;;;;;5057431;28;20091;-81
2022/12/31 00:43:29;;;;;;;17.55;4.82;;;11.70;99.90;;;;;;5038594;28;20506;-80
2022/12/31 00:45:54;;;;;;;14.05;3.97;;;11.70;99.90;;;;;;5048981;28;20040;-80
2022/12/31 00:48:20;;;;;;;16.35;4.63;;;11.70;99.90;;;;;;5054711;28;20029;-80
2022/12/31 00:50:45;;;;;;;16.10;3.97;;;11.70;99.90;;;;;;5054011;28;20163;-81
2022/12/31 00:53:11;;;;;;;18.85;4.07;;;11.70;99.90;;;;;;5049947;28;20053;-80
2022/12/31 00:55:36;;;;;;;16.17;4.45;;;11.70;99.90;;;;;;5057553;28;20053;-81
2022/12/31 00:58:02;;;;;;;15.70;3.92;;;11.70;99.90;;;;;;5040981;28;20044;-80
2022/12/31 01:00:27;;;;;;;16.40;4.32;;;11.70;99.90;;;;;;5057549;28;20041;-80
2022/12/31 01:02:53;;;;;;;10.05;3.75;;;11.70;99.90;;;;;;5057423;28;20073;-80
2022/12/31 01:05:18;;;;;;;20.20;4.38;;;11.60;99.90;;;;;;5057064;28;20059;-80
2022/12/31 01:07:44;;;;;;;13.63;3.95;;;11.60;99.90;;;;;;5054692;28;20040;-81
2022/12/31 01:10:09;;;;;;;17.48;4.60;;;11.60;99.90;;;;;;5040455;28;20158;-80
2022/12/31 01:12:35;;;;;;;17.15;4.13;;;11.60;99.90;;;;;;5056633;28;20117;-80
2022/12/31 01:15:01;;;;;;;18.90;5.18;;;11.60;99.90;;;;;;5056904;28;20051;-81
2022/12/31 01:17:27;;;;;;;15.52;4.60;;;11.60;99.90;;;;;;5054594;28;20406;-80
2022/12/31 01:19:52;;;;;;;12.77;3.97;;;11.60;99.90;;;;;;5057921;28;20491;-82
2022/12/31 01:22:18;;;;;;;17.02;3.83;;;11.60;99.90;;;;;;5038744;28;20048;-82
2022/12/31 01:24:43;;;;;;;15.27;4.47;;;11.60;99.90;;;;;;5051320;28;20044;-80
2022/12/31 01:27:09;;;;;;;18.38;4.45;;;11.60;99.90;;;;;;5056771;28;20132;-80
2022/12/31 01:29:34;;;;;;;11.93;3.92;;;11.60;99.90;;;;;;5057126;28;20076;-81
2022/12/31 01:32:00;;;;;;;12.98;3.80;;;11.30;99.90;;;;;;5056170;28;20485;-81
2022/12/31 01:34:26;;;;;;;11.00;4.40;;;11.60;99.90;;;;;;5055402;28;20091;-81
2022/12/31 01:36:51;;;;;;;14.73;5.07;;;11.60;99.90;;;;;;5057612;28;20127;-80
2022/12/31 01:39:17;;;;;;;14.20;4.90;;;11.60;99.90;;;;;;5055832;28;20045;-81
2022/12/31 01:41:44;;;;;;;11.05;4.47;;;11.60;99.90;;;;;;5041799;28;20124;-80
2022/12/31 01:44:10;;;;;;;10.35;4.32;;;11.60;99.90;;;;;;5042938;28;20479;-80
2022/12/31 01:46:44;;;;;;;12.25;4.32;;;11.60;99.90;;;;;;5055463;28;20041;-80
2022/12/31 01:49:21;;;;;;;14.93;4.38;;;11.60;99.90;;;;;;5048925;28;20108;-81
2022/12/31 01:51:55;;;;;;;15.23;4.03;;;11.60;99.90;;;;;;5055459;28;20037;-81
2022/12/31 01:54:23;;;;;;;9.40;4.25;;;11.60;99.90;;;;;;5044981;28;20032;-81
2022/12/31 01:56:50;;;;;;;10.65;3.88;;;11.60;99.90;;;;;;5059999;28;20041;-81
2022/12/31 01:59:17;;;;;;;12.98;4.82;;;11.60;99.90;;;;;;5054842;28;20041;-81
2022/12/31 02:01:45;;;;;;;8.93;4.03;;;11.60;99.90;;;;;;5054477;28;20045;-79
2022/12/31 02:04:12;;;;;;;12.43;4.60;;;11.60;99.90;;;;;;5051364;28;20041;-81
2022/12/31 02:06:43;;;;;;;8.73;4.13;;;11.60;99.90;;;;;;5048930;28;20043;-81
2022/12/31 02:09:10;;;;;;;9.20;3.67;;;11.60;99.90;;;;;;5040151;28;20087;-81
2022/12/31 02:11:36;;;;;;;12.38;4.00;;;11.60;99.90;;;;;;5042345;28;20119;-81
2022/12/31 02:14:30;;;;;;;8.95;4.53;;;11.60;99.90;;;;;;5054288;28;20044;-81
2022/12/31 02:17:10;;;;;;;8.15;4.55;;;11.60;99.90;;;;;;5028497;28;20471;-81
2022/12/31 02:20:00;;;;;;;13.45;4.78;;;11.60;99.90;;;;;;5055318;28;20053;-81
2022/12/31 02:22:50;;;;;;;7.75;4.32;;;11.60;99.90;;;;;;5055279;28;20032;-80
2022/12/31 02:25:38;;;;;;;7.93;3.75;;;11.60;99.90;;;;;;5055691;28;20044;-81
2022/12/31 02:28:30;;;;;;;10.52;3.92;;;11.60;99.90;;;;;;5054298;28;20037;-81
2022/12/31 02:31:06;;;;;;;9.90;3.75;;;11.60;99.90;;;;;;5053374;28;20033;-81
2022/12/31 02:33:37;;;;;;;9.15;3.75;;;11.60;99.90;;;;;;5035636;28;20399;-81
2022/12/31 02:36:12;;;;;;;8.00;3.60;;;11.50;99.90;;;;;;5018105;28;20045;-82
2022/12/31 02:38:42;;;;;;;8.23;3.33;;;11.60;99.90;;;;;;5016934;28;20067;-83
2022/12/31 02:44:24;;;;;;;9.40;3.63;;;11.50;99.90;;;;;;5032183;28;20552;-81
2022/12/31 02:47:08;;;;;;;6.78;3.28;;;11.60;99.90;;;;;;5034004;28;20067;-81
2022/12/31 02:50:04;;;;;;;10.95;4.00;;;11.50;99.90;;;;;;5032287;28;20449;-80
2022/12/31 02:52:32;;;;;;;7.72;3.17;;;11.50;99.90;;;;;;5053199;28;20174;-81
2022/12/31 02:55:17;;;;;;;8.55;3.22;;;11.50;99.90;;;;;;5053968;28;20037;-82
2022/12/31 02:58:17;;;;;;;6.32;2.85;;;11.50;99.90;;;;;;5053650;28;20048;-80
2022/12/31 03:03:41;;;;;;;7.55;2.35;;;11.40;99.90;;;;;;5052329;28;20045;-82
2022/12/31 03:06:08;;;;;;;8.95;2.30;;;11.40;99.90;;;;;;5048588;28;20049;-80
2022/12/31 03:09:11;;;;;;;8.40;2.05;;;11.40;99.90;;;;;;5044149;28;20037;-81
2022/12/31 03:14:03;;;;;;;5.20;1.83;;;11.40;99.90;;;;;;5048400;28;20548;-80
2022/12/31 03:16:29;;;;;;;7.05;1.88;;;11.30;99.90;;;;;;5050588;28;20041;-82
2022/12/31 03:27:07;;;;;;;6.10;1.33;;;11.20;99.90;;;;;;5033138;28;20438;-81
2022/12/31 03:29:32;;;;;;;5.95;1.23;;;11.20;99.90;;;;;;5048939;28;20041;-82
2022/12/31 03:31:58;;;;;;;5.25;1.80;;;11.10;99.90;;;;;;5052645;28;20041;-82
2022/12/31 03:34:23;;;;;;;5.70;1.20;;;11.10;99.90;;;;;;5052039;28;20162;-80
2022/12/31 03:36:49;;;;;;;3.85;0.95;;;11.10;99.90;;;;;;5053775;28;20053;-82
2022/12/31 03:39:14;;;;;;;3.78;0.90;;;11.10;99.90;;;;;;5048176;28;20041;-82
2022/12/31 03:41:39;;;;;;;3.45;0.70;;;11.00;99.90;;;;;;5048148;28;20045;-82
2022/12/31 03:44:05;;;;;;;3.28;0.95;;;11.00;99.90;;;;;;5052000;28;20037;-82
2022/12/31 03:46:30;;;;;;;4.93;1.20;;;11.00;99.90;;;;;;5052097;28;20378;-82
2022/12/31 03:48:57;;;;;;;3.20;0.60;;;11.00;99.90;;;;;;5047487;28;20045;-82
2022/12/31 03:51:22;;;;;;;4.80;0.88;;;11.00;99.90;;;;;;5051961;28;20495;-81
2022/12/31 03:53:48;;;;;;;4.93;1.20;;;11.00;99.90;;;;;;5051786;28;20044;-81
2022/12/31 03:56:13;;;;;;;3.42;0.73;;;11.00;99.90;;;;;;5049070;28;20108;-81
2022/12/31 03:58:39;;;;;;;5.32;1.50;;;10.90;99.90;;;;;;5036384;28;20545;-81
2022/12/31 04:01:05;;;;;;;2.72;0.70;;;10.90;99.90;;;;;;5051427;28;20581;-82
2022/12/31 04:03:30;;;;;;;4.28;0.85;;;10.90;99.90;;;;;;5048959;28;20032;-81
2022/12/31 04:05:56;;;;;;;5.85;1.17;;;10.80;99.90;;;;;;5047750;28;20101;-81
2022/12/31 04:08:22;;;;;;;4.78;0.80;;;10.80;99.90;;;;;;5041429;28;20076;-80
2022/12/31 04:10:48;;;;;;;3.00;0.85;;;10.90;99.90;;;;;;5048935;28;20475;-81
2022/12/31 04:13:14;;;;;;;5.13;1.08;;;10.80;99.90;;;;;;5051200;28;20043;-82
2022/12/31 04:15:39;;;;;;;3.72;0.80;;;10.80;99.90;;;;;;5045085;28;20033;-81
2022/12/31 04:18:05;;;;;;;5.30;1.35;;;10.80;99.90;;;;;;5045568;28;20047;-81
2022/12/31 04:20:30;;;;;;;4.88;1.02;;;10.80;99.90;;;;;;5047167;28;20513;-81
2022/12/31 04:22:56;;;;;;;3.08;0.90;;;10.80;99.90;;;;;;5051458;28;20084;-81
2022/12/31 04:25:21;;;;;;;3.55;1.30;;;10.80;99.90;;;;;;5046900;28;20047;-82
2022/12/31 04:27:47;;;;;;;6.93;1.52;;;10.80;99.90;;;;;;5045522;28;20283;-81
2022/12/31 04:30:13;;;;;;;6.80;1.90;;;10.80;99.90;;;;;;5051046;28;20514;-82
2022/12/31 04:32:38;;;;;;;5.25;1.60;;;10.70;99.90;;;;;;5051512;28;20033;-81
2022/12/31 04:35:04;;;;;;;5.43;1.88;;;10.80;99.90;;;;;;5035708;28;20112;-82
2022/12/31 04:37:30;;;;;;;4.07;1.83;;;10.70;99.90;;;;;;5043627;28;20096;-81
2022/12/31 04:39:55;;;;;;;5.72;1.73;;;10.70;99.90;;;;;;5050091;28;20073;-79
2022/12/31 04:42:21;;;;;;;6.18;1.70;;;10.70;99.90;;;;;;5031607;28;20143;-81
2022/12/31 04:44:46;;;;;;;6.57;2.10;;;10.70;99.90;;;;;;5052720;28;20032;-81
2022/12/31 04:47:12;;;;;;;9.57;1.75;;;10.70;99.90;;;;;;5051520;28;20508;-81
2022/12/31 04:49:37;;;;;;;4.70;1.75;;;10.70;99.90;;;;;;5051605;28;20120;-81
2022/12/31 04:52:03;;;;;;;4.25;2.38;;;10.70;99.90;;;;;;5051271;28;20037;-81
2022/12/31 04:54:28;;;;;;;6.55;1.92;;;10.90;99.90;;;;;;5050681;28;20036;-81
2022/12/31 04:56:54;;;;;;;4.43;1.67;;;10.70;99.90;;;;;;5035244;28;20032;-80
2022/12/31 04:59:19;;;;;;;6.18;1.58;;;10.60;99.90;;;;;;5053728;28;20037;-81
2022/12/31 05:01:45;;;;;;;6.13;2.00;;;10.60;99.90;;;;;;5049583;28;20045;-82
2022/12/31 05:04:10;;;;;;;5.20;1.90;;;10.60;99.90;;;;;;5050923;28;20044;-81
2022/12/31 05:06:36;;;;;;;6.13;2.03;;;10.60;99.90;;;;;;5047081;28;20043;-82
2022/12/31 05:09:01;;;;;;;5.63;2.05;;;10.60;99.90;;;;;;5052329;28;20061;-80
2022/12/31 05:11:27;;;;;;;6.72;2.20;;;10.60;99.90;;;;;;5050937;28;20083;-81
2022/12/31 05:13:52;;;;;;;7.28;2.53;;;10.60;99.90;;;;;;5052617;28;20087;-81
2022/12/31 05:16:18;;;;;;;9.95;2.38;;;10.60;99.90;;;;;;5051045;28;20051;-81
2022/12/31 05:18:43;;;;;;;5.75;2.00;;;10.60;99.90;;;;;;5051632;28;20065;-79
2022/12/31 05:21:14;;;;;;;5.65;1.88;;;10.60;99.90;;;;;;5051573;28;20120;-81
2022/12/31 05:23:39;;;;;;;7.88;2.10;;;10.60;99.90;;;;;;5034026;28;20083;-81
2022/12/31 05:26:05;;;;;;;5.32;1.95;;;10.60;99.90;;;;;;5037652;28;20056;-80
2022/12/31 05:28:31;;;;;;;7.80;2.63;;;10.60;99.90;;;;;;5056984;28;20043;-82
2022/12/31 05:30:57;;;;;;;6.28;2.20;;;10.50;99.90;;;;;;5053627;28;20037;-81
2022/12/31 05:33:22;;;;;;;6.97;2.20;;;10.60;99.90;;;;;;5054880;28;20056;-81
2022/12/31 05:35:48;;;;;;;8.05;2.47;;;10.60;99.90;;;;;;5038642;28;20041;-82
2022/12/31 05:38:13;;;;;;;9.55;2.35;;;10.60;99.90;;;;;;5053585;28;20506;-80
2022/12/31 05:40:39;;;;;;;7.22;2.00;;;10.60;99.90;;;;;;5053508;28;20033;-81
2022/12/31 05:43:04;;;;;;;6.85;1.90;;;10.70;99.90;;;;;;5056051;28;20494;-81
2022/12/31 05:45:30;;;;;;;4.95;1.85;;;10.70;99.90;;;;;;5054540;28;20116;-80
2022/12/31 05:47:55;;;;;;;5.13;1.95;;;10.70;99.90;;;;;;5054204;28;20037;-80
2022/12/31 05:50:21;;;;;;;7.10;1.70;;;10.70;99.90;;;;;;5053308;28;20371;-82
2022/12/31 05:52:47;;;;;;;3.72;1.55;;;10.70;99.90;;;;;;5055125;28;20068;-82
2022/12/31 05:55:13;;;;;;;4.22;1.45;;;10.70;99.90;;;;;;5052112;28;20395;-82
2022/12/31 05:57:38;;;;;;;7.57;1.75;;;10.70;99.90;;;;;;5038549;28;20068;-80
2022/12/31 06:00:05;;;;;;;6.82;1.85;;;10.70;99.90;;;;;;5054299;28;20525;-81
2022/12/31 06:02:31;;;;;;;6.70;2.42;;;10.80;99.90;;;;;;5053835;28;20125;-80
2022/12/31 06:04:56;;;;;;;5.63;1.92;;;10.70;99.90;;;;;;5057163;28;20060;-79
2022/12/31 06:07:22;;;;;;;4.03;1.67;;;10.80;99.90;;;;;;5056973;28;20076;-79
2022/12/31 06:09:47;;;;;;;3.53;1.80;;;10.80;99.90;;;;;;5057896;28;20091;-80
2022/12/31 06:12:13;;;;;;;3.58;1.67;;;10.70;99.90;;;;;;5054023;28;20141;-79
2022/12/31 06:14:39;;;;;;;5.20;1.58;;;10.70;99.90;;;;;;5055313;28;20123;-80
2022/12/31 06:17:04;;;;;;;4.57;1.58;;;10.60;99.90;;;;;;5039179;28;20033;-79
2022/12/31 06:19:30;;;;;;;6.20;1.27;;;10.60;99.90;;;;;;5045986;28;20041;-79
2022/12/31 06:21:55;;;;;;;4.57;1.35;;;10.50;99.90;;;;;;5039501;28;20032;-80
2022/12/31 06:24:21;;;;;;;3.33;1.00;;;10.50;99.90;;;;;;5056328;28;20032;-79
2022/12/31 06:26:46;;;;;;;3.33;0.90;;;10.40;99.90;;;;;;5053128;28;20025;-79
2022/12/31 06:29:12;;;;;;;3.88;0.80;;;10.40;99.90;;;;;;5051286;28;20438;-80
2022/12/31 06:31:38;;;;;;;5.28;0.93;;;10.30;99.90;;;;;;5056923;28;20115;-81
2022/12/31 06:34:03;;;;;;;5.32;0.80;;;10.30;99.90;;;;;;5049548;28;20090;-79
2022/12/31 06:36:29;;;;;;;3.40;0.88;;;10.20;99.90;;;;;;5053217;28;20041;-80
2022/12/31 06:38:54;;;;;;;4.72;0.80;;;10.20;99.90;;;;;;5053778;28;20124;-81
2022/12/31 06:41:20;;;;;;;3.13;1.00;;;10.20;99.90;;;;;;5053378;28;20045;-80
2022/12/31 06:43:46;;;;;;;4.20;1.02;;;10.10;99.90;;;;;;5055017;28;20029;-81
2022/12/31 06:46:13;;;;;;;3.83;1.60;;;10.10;99.90;;;;;;5053221;28;20044;-81
2022/12/31 06:48:41;;;;;;;5.25;2.28;;;10.20;99.90;;;;;;5054267;28;20037;-81
2022/12/31 06:51:25;;;;;;;5.60;4.22;;;10.10;99.90;;;;;;5054250;28;20040;-81
2022/12/31 06:53:51;;;;;;;7.05;5.05;;;10.20;99.90;;;;;;5035416;28;20041;-82
2022/12/31 06:56:20;;;;;;;5.80;4.78;;;10.30;99.90;;;;;;5049027;28;20102;-81
2022/12/31 06:58:46;;;;;;;8.63;5.28;;;10.30;99.90;;;;;;5047679;28;20040;-80
2022/12/31 07:01:36;;;;;;;7.25;4.47;;;10.30;99.90;;;;;;5017336;28;20570;-81
2022/12/31 07:04:11;;;;;;;5.95;4.32;;;10.30;99.90;;;;;;5043610;28;20095;-78
2022/12/31 07:06:46;;;;;;;5.32;4.10;;;10.40;99.90;;;;;;5027799;28;20045;-81
2022/12/31 07:09:29;;;;;;;6.53;4.40;;;10.40;99.90;;;;;;5052020;28;20072;-81
2022/12/31 07:12:06;;;;;;;6.18;4.13;;;10.40;99.90;;;;;;5049114;28;20033;-80
2022/12/31 07:14:49;;;;;;;6.47;3.55;;;10.40;99.90;;;;;;5047283;28;20509;-81
2022/12/31 07:17:40;;;;;;;5.03;3.70;;;10.30;99.90;;;;;;5024094;28;20041;-80
2022/12/31 07:20:15;;;;;;;4.50;3.40;;;10.30;99.90;;;;;;5044694;28;20041;-82
2022/12/31 07:22:41;;;;;;;5.18;2.88;;;10.30;99.90;;;;;;5045294;28;20041;-79
2022/12/31 07:25:11;;;;;;;3.58;3.00;;;10.30;99.90;;;;;;5043511;28;20049;-80
2022/12/31 07:27:49;;;;;;;5.40;2.92;;;10.30;99.90;;;;;;5052919;28;20044;-80
2022/12/31 07:30:16;;;;;;;5.68;2.95;;;10.30;99.90;;;;;;5042389;28;20093;-80
2022/12/31 07:32:51;;;;;;;5.10;3.03;;;10.30;99.90;;;;;;5044427;28;20044;-81
2022/12/31 07:35:40;;;;;;;6.40;3.22;;;10.30;99.90;;;;;;5045559;28;20045;-80
2022/12/31 07:38:26;;;;;;;5.43;3.05;;;10.30;99.90;;;;;;5043653;28;20033;-81
2022/12/31 07:41:19;;;;;;;5.00;3.10;;;10.30;99.90;;;;;;5050573;28;20120;-81
2022/12/31 07:44:07;;;;;;;4.72;2.83;;;10.30;99.90;;;;;;5031903;28;20085;-82
2022/12/31 07:46:56;;;;;;;4.85;3.28;;;10.20;99.90;;;;;;5043842;28;20794;-81
2022/12/31 07:49:23;;;;;;;4.28;3.08;;;10.20;99.90;;;;;;5035068;28;20537;-80
2022/12/31 07:51:49;;;;;;;5.50;2.75;;;10.20;99.90;;;;;;5046560;28;20049;-81
2022/12/31 07:54:14;;;;;;;4.75;2.83;;;10.20;99.90;;;;;;5048623;28;20056;-80
2022/12/31 07:56:41;;;;;;;4.28;3.22;;;10.20;99.90;;;;;;5046738;28;20040;-80
2022/12/31 07:59:22;;;;;;;6.22;3.65;;;10.30;99.90;;;;;;5051278;28;20044;-81
2022/12/31 08:02:00;;;;;;;7.15;4.40;;;10.30;99.90;;;;;;5037304;28;20049;-81
2022/12/31 08:04:44;;;;;;;4.72;3.72;;;10.20;99.90;;;;;;5053580;28;20036;-80
2022/12/31 08:07:28;;;;;;;3.58;2.92;;;10.20;99.90;;;;;;5054740;28;20028;-79
2022/12/31 08:10:11;;;;;;;3.53;3.00;;;10.30;99.90;;;;;;5054825;28;20041;-81
2022/12/31 08:12:38;;;;;;;5.22;2.60;;;10.30;99.90;;;;;;5039967;28;20056;-81
2022/12/31 08:15:13;;;;;;;4.55;2.40;;;10.30;99.90;;;;;;5053494;28;20052;-81
2022/12/31 08:17:38;;;;;;;5.13;2.40;;;10.30;99.90;;;;;;5048175;28;20041;-80
2022/12/31 08:20:04;;;;;;;2.72;1.90;;;10.30;99.90;;;;;;5053797;28;20103;-81
2022/12/31 08:23:08;;;;;;;2.80;2.03;;;10.30;99.90;;;;;;5062307;28;20043;-81
2022/12/31 08:25:56;;;;;;;3.47;2.03;;;10.30;99.90;;;;;;5051733;28;20041;-82
2022/12/31 08:29:21;;;;;;;1.40;1.20;;;10.30;99.90;;;;;;5051831;28;20114;-81
2022/12/31 08:32:02;;;;;;;1.20;0.95;;;10.40;99.90;;;;;;5010253;28;20087;-81
2022/12/31 08:34:54;;;;;;;1.60;0.98;;;10.40;99.90;;;;;;5011338;28;20124;-81
2022/12/31 08:37:36;;;;;;;2.20;1.10;;;10.40;99.90;;;;;;5035718;28;20390;-81
2022/12/31 08:40:21;;;;;;;1.50;0.82;;;10.50;99.90;;;;;;5037241;28;20041;-82
2022/12/31 08:43:14;;;;;;;2.45;1.63;;;10.50;99.90;;;;;;5050142;28;20203;-81
2022/12/31 08:45:49;;;;;;;2.30;1.83;;;10.60;99.90;;;;;;5047390;28;20087;-82
2022/12/31 08:48:26;;;;;;;3.03;1.80;;;10.70;99.90;;;;;;5049151;28;20052;-81
2022/12/31 08:50:52;;;;;;;3.80;2.20;;;10.70;99.90;;;;;;5047946;28;20503;-81
2022/12/31 08:53:18;;;;;;;3.30;2.58;;;10.70;99.90;;;;;;5048454;28;20045;-81
2022/12/31 08:55:47;;;;;;;4.60;2.53;;;10.80;99.90;;;;;;5049382;28;20033;-81
2022/12/31 08:58:34;;;;;;;3.78;3.20;;;10.90;99.90;;;;;;5051767;28;20099;-81
2022/12/31 09:01:00;;;;;;;4.78;3.67;;;11.00;99.90;;;;;;5056196;28;20411;-81
2022/12/31 09:04:11;;;;;;;3.90;3.30;;;11.00;99.90;;;;;;5059154;28;20036;-80
2022/12/31 09:06:57;;;;;;;4.53;3.58;;;11.20;99.90;;;;;;5056213;28;20040;-81
2022/12/31 09:09:41;;;;;;;4.70;3.72;;;11.20;99.90;;;;;;5057374;28;20041;-80
2022/12/31 09:12:34;;;;;;;4.32;3.92;;;11.30;99.90;;;;;;5041756;28;20496;-81
2022/12/31 09:15:19;;;;;;;4.18;3.78;;;11.40;99.90;;;;;;5057957;28;20403;-81
2022/12/31 09:17:47;;;;;;;4.38;3.97;;;11.50;99.90;;;;;;5038330;28;20083;-82
2022/12/31 09:20:16;;;;;;;5.75;4.72;;;11.50;99.90;;;;;;5057482;28;20502;-81
2022/12/31 09:22:42;;;;;;;5.38;4.25;;;11.60;99.90;;;;;;5058134;28;20486;-81
2022/12/31 09:25:13;;;;;;;5.28;3.90;;;11.90;99.90;;;;;;5041908;28;20041;-82
2022/12/31 09:28:00;;;;;;;5.97;3.58;;;11.70;99.90;;;;;;5058166;28;20037;-79
2022/12/31 09:30:29;;;;;;;4.38;3.30;;;11.80;99.90;;;;;;5059013;28;20053;-81
2022/12/31 09:33:13;;;;;;;5.32;3.25;;;11.80;99.90;;;;;;5059649;28;20044;-80
2022/12/31 09:35:53;;;;;;;4.30;3.38;;;11.90;99.90;;;;;;5059227;28;20044;-80
2022/12/31 09:38:45;;;;;;;4.57;2.88;;;12.00;99.90;;;;;;5058715;28;20130;-81
2022/12/31 09:41:15;;;;;;;7.28;3.97;;;12.00;99.90;;;;;;5042044;28;20063;-80
2022/12/31 09:44:05;;;;;;;5.78;2.45;;;12.00;99.90;;;;;;5058581;28;20044;-81
2022/12/31 09:47:19;;;;;;;4.95;2.20;;;12.10;99.90;;;;;;5058852;28;20093;-80
2022/12/31 09:50:14;;;;;;;3.20;2.20;;;12.20;99.90;;;;;;5050134;28;20063;-79
2022/12/31 09:53:15;;;;;;;4.05;2.05;;;12.30;99.90;;;;;;5044348;28;20459;-80
2022/12/31 09:56:18;;;;;;;3.03;1.70;;;12.30;99.90;;;;;;5041783;28;20044;-79
2022/12/31 09:59:11;;;;;;;3.85;1.73;;;12.30;99.90;;;;;;5052274;28;20045;-80
2022/12/31 10:01:55;;;;;;;2.40;1.40;;;12.40;99.90;;;;;;5046094;28;20037;-82
2022/12/31 10:05:02;;;;;;;4.75;1.58;;;12.30;99.90;;;;;;5055970;28;20102;-82
2022/12/31 10:07:30;;;;;;;5.30;1.80;;;12.50;99.90;;;;;;5032710;28;20048;-79
2022/12/31 10:10:06;;;;;;;3.55;1.40;;;12.50;99.90;;;;;;5015748;28;20053;-80
2022/12/31 10:12:57;;;;;;;3.83;1.00;;;12.60;99.90;;;;;;5033025;28;20048;-81
2022/12/31 10:15:41;;;;;;;4.82;1.20;;;12.70;99.90;;;;;;5036662;28;20041;-79
2022/12/31 10:18:53;;;;;;;4.80;1.23;;;12.70;99.90;;;;;;5051986;28;20044;-82
2022/12/31 10:21:52;;;;;;;4.38;1.23;;;12.80;99.90;;;;;;5054946;28;20041;-80
2022/12/31 10:24:33;;;;;;;5.40;1.00;;;13.00;99.90;;;;;;5038556;28;20285;-80
2022/12/31 10:27:40;;;;;;;10.15;1.40;;;13.00;99.90;;;;;;5053153;28;20043;-80
2022/12/31 10:30:12;;;;;;;4.90;1.00;;;13.10;99.90;;;;;;5022856;28;20048;-79
2022/12/31 10:32:51;;;;;;;6.28;1.17;;;13.10;99.90;;;;;;5051305;28;20067;-80
2022/12/31 10:35:38;;;;;;;4.57;1.02;;;13.20;99.90;;;;;;5051075;28;20047;-80
2022/12/31 10:38:22;;;;;;;6.07;1.02;;;13.20;99.90;;;;;;5056277;28;20037;-80
2022/12/31 10:41:12;;;;;;;6.85;0.90;;;13.20;99.90;;;;;;5053163;28;20049;-81
2022/12/31 10:44:16;;;;;;;5.55;1.02;;;13.20;99.90;;;;;;5037234;28;20056;-81
2022/12/31 10:47:10;;;;;;;5.38;1.40;;;13.20;99.90;;;;;;5054068;28;20032;-80
2022/12/31 10:50:14;;;;;;;4.63;1.08;;;13.20;99.90;;;;;;5052562;28;20041;-80
2022/12/31 10:53:14;;;;;;;6.15;1.55;;;13.20;99.90;;;;;;5053509;28;20037;-80
2022/12/31 10:56:05;;;;;;;7.72;1.10;;;13.30;99.90;;;;;;5026266;28;20037;-82
2022/12/31 10:58:52;;;;;;;8.82;1.30;;;13.30;99.90;;;;;;5061305;28;20049;-81
2022/12/31 11:01:33;;;;;;;7.60;1.40;;;13.30;99.90;;;;;;5053583;28;20091;-80
2022/12/31 11:04:25;;;;;;;4.90;1.23;;;13.30;99.90;;;;;;5024449;28;20041;-81
2022/12/31 11:07:12;;;;;;;6.82;1.30;;;13.40;99.90;;;;;;5051527;28;20112;-80
2022/12/31 11:10:11;;;;;;;8.18;1.30;;;13.40;99.90;;;;;;5050637;28;20029;-82
2022/12/31 11:13:00;;;;;;;7.22;1.55;;;13.50;99.90;;;;;;5054122;28;20402;-82
2022/12/31 11:15:39;;;;;;;8.13;1.17;;;13.50;99.90;;;;;;5054945;28;20090;-81
2022/12/31 11:18:25;;;;;;;8.68;1.55;;;13.50;99.90;;;;;;5054840;28;20036;-81
2022/12/31 11:21:12;;;;;;;8.32;1.63;;;13.50;99.90;;;;;;5053976;28;20487;-81
2022/12/31 11:23:54;;;;;;;9.27;1.77;;;13.50;99.90;;;;;;5053710;28;20449;-80
2022/12/31 11:26:41;;;;;;;7.55;1.73;;;13.50;99.90;;;;;;5048938;28;20123;-81
2022/12/31 11:29:40;;;;;;;9.35;2.30;;;13.50;99.90;;;;;;5044452;28;20091;-80
2022/12/31 11:32:22;;;;;;;13.40;2.20;;;13.60;99.90;;;;;;5053751;28;20033;-82
2022/12/31 11:35:02;;;;;;;9.65;2.00;;;13.60;99.90;;;;;;5054434;28;20040;-82
2022/12/31 11:37:43;;;;;;;7.03;1.58;;;13.60;99.90;;;;;;5050428;28;20047;-80
2022/12/31 11:40:21;;;;;;;8.57;1.67;;;13.50;99.90;;;;;;5036948;28;20044;-80
2022/12/31 11:42:58;;;;;;;10.43;1.58;;;13.60;99.90;;;;;;5050767;28;20036;-81
2022/12/31 11:46:04;;;;;;;10.65;1.85;;;13.90;99.90;;;;;;5053924;28;20106;-82
2022/12/31 11:49:04;;;;;;;5.40;1.20;;;13.60;99.90;;;;;;5050723;28;20057;-82
2022/12/31 11:51:48;;;;;;;10.77;2.70;;;13.60;99.90;;;;;;5045447;28;20098;-81
2022/12/31 11:54:32;;;;;;;6.97;1.67;;;13.60;99.90;;;;;;5044020;28;20049;-82
2022/12/31 11:57:01;;;;;;;6.13;1.40;;;13.60;99.90;;;;;;5049757;28;20041;-79
2022/12/31 11:59:27;;;;;;;4.68;1.30;;;13.70;99.90;;;;;;5047513;28;20037;-80
2022/12/31 12:02:00;;;;;;;4.20;1.40;;;13.70;99.90;;;;;;5040124;28;20048;-80
2022/12/31 12:04:26;;;;;;;5.28;1.33;;;13.70;99.90;;;;;;5041879;28;20048;-79
2022/12/31 12:06:52;;;;;;;6.82;1.45;;;13.70;99.90;;;;;;5028788;28;20037;-79
2022/12/31 12:09:33;;;;;;;4.88;1.30;;;13.70;99.90;;;;;;5032424;28;20531;-79
2022/12/31 12:12:01;;;;;;;4.97;1.30;;;13.70;99.90;;;;;;5039341;28;20037;-81
2022/12/31 12:14:32;;;;;;;7.60;1.50;;;13.60;99.90;;;;;;5039049;28;20128;-79
2022/12/31 12:16:59;;;;;;;9.60;2.08;;;13.60;99.90;;;;;;5037057;28;20048;-78
2022/12/31 12:19:29;;;;;;;9.13;1.90;;;13.60;99.90;;;;;;5016895;28;20045;-78
2022/12/31 12:21:55;;;;;;;7.63;1.67;;;13.50;99.90;;;;;;5037374;28;20459;-81
2022/12/31 12:24:30;;;;;;;11.88;2.63;;;13.50;99.90;;;;;;5033464;28;20075;-80
2022/12/31 12:26:56;;;;;;;8.88;2.13;;;13.40;99.90;;;;;;5026402;28;20090;-80
2022/12/31 12:29:29;;;;;;;12.02;2.30;;;13.40;99.90;;;;;;5045155;28;20049;-80
2022/12/31 12:32:00;;;;;;;7.50;2.25;;;13.40;99.90;;;;;;5040507;28;20052;-81
2022/12/31 12:34:34;;;;;;;8.48;1.92;;;13.40;99.90;;;;;;5045730;28;20047;-80
2022/12/31 12:37:00;;;;;;;10.52;1.88;;;13.40;99.90;;;;;;5042059;28;20033;-80
2022/12/31 12:39:35;;;;;;;12.05;2.60;;;13.40;99.90;;;;;;5037753;28;20667;-80
2022/12/31 12:42:10;;;;;;;7.53;1.90;;;13.40;99.90;;;;;;5053023;28;20410;-80
2022/12/31 12:44:35;;;;;;;7.40;1.85;;;13.40;99.90;;;;;;5051111;28;20033;-80
2022/12/31 12:47:03;;;;;;;10.73;1.80;;;13.40;99.90;;;;;;5036286;28;20037;-81
2022/12/31 12:49:42;;;;;;;7.22;1.85;;;13.40;99.90;;;;;;5033758;28;20086;-81
2022/12/31 12:52:20;;;;;;;8.98;2.53;;;13.50;99.90;;;;;;5036789;28;20069;-80
2022/12/31 12:55:19;;;;;;;8.45;2.00;;;13.40;99.90;;;;;;5046351;28;20426;-80
2022/12/31 12:58:08;;;;;;;6.53;1.80;;;13.40;99.90;;;;;;5046246;28;20041;-81
2022/12/31 13:00:40;;;;;;;9.68;2.00;;;13.40;99.90;;;;;;5052883;28;20478;-81
2022/12/31 13:03:40;;;;;;;11.55;3.05;;;13.40;99.90;;;;;;5034159;28;20115;-81
2022/12/31 13:06:23;;;;;;;12.80;2.40;;;13.40;99.90;;;;;;5052002;28;20045;-80
2022/12/31 13:09:01;;;;;;;11.02;2.17;;;13.40;99.90;;;;;;5044061;28;20034;-80
2022/12/31 13:11:44;;;;;;;6.88;1.88;;;13.40;99.90;;;;;;5041949;28;20041;-80
2022/12/31 13:14:37;;;;;;;8.68;1.83;;;13.30;99.90;;;;;;5045952;28;20037;-79
2022/12/31 13:17:45;;;;;;;7.95;1.70;;;13.30;99.90;;;;;;5032997;28;20120;-78
2022/12/31 13:20:31;;;;;;;10.30;1.70;;;13.40;99.90;;;;;;5041752;28;20049;-79
2022/12/31 13:23:29;;;;;;;7.93;1.77;;;13.30;99.90;;;;;;5034010;28;20064;-79
2022/12/31 13:26:06;;;;;;;8.20;1.60;;;13.30;99.90;;;;;;5015628;28;20439;-77
2022/12/31 13:28:32;;;;;;;9.07;2.20;;;13.30;99.90;;;;;;5040754;28;20071;-78
2022/12/31 13:31:02;;;;;;;11.90;2.33;;;13.20;99.90;;;;;;5035602;28;20116;-79
2022/12/31 13:33:35;;;;;;;8.10;2.00;;;13.10;99.90;;;;;;5035421;28;20041;-79
2022/12/31 13:36:04;;;;;;;8.63;1.90;;;13.00;99.90;;;;;;5042513;28;20038;-79
2022/12/31 13:38:35;;;;;;;10.27;1.80;;;12.90;99.90;;;;;;5041695;28;20399;-79
2022/12/31 13:41:28;;;;;;;13.68;1.88;;;12.90;99.90;;;;;;5044139;28;20043;-79